sensor_id;sensor_type;location;lat;lon;timestamp;pressure;altitude;pressure_sealevel;temperature;humidity
78717;BME280;68045;50.042;14.432;2023-05-16T00:01:50;97823.00;;;10.82;76.86
78717;BME280;68045;50.042;14.432;2023-05-16T00:05:51;97823.47;;;10.79;77.29
78717;BME280;68045;50.042;14.432;2023-05-16T00:09:52;97819.31;;;10.83;77.01
78717;BME280;68045;50.042;14.432;2023-05-16T00:13:52;97819.06;;;10.84;76.04
78717;BME280;68045;50.042;14.432;2023-05-16T00:17:57;97829.94;;;10.88;76.60
78717;BME280;68045;50.042;14.432;2023-05-16T00:22:01;97826.75;;;10.86;76.47
78717;BME280;68045;50.042;14.432;2023-05-16T00:26:03;97831.94;;;10.81;77.46
78717;BME280;68045;50.042;14.432;2023-05-16T00:30:05;97825.72;;;10.70;77.85
78717;BME280;68045;50.042;14.432;2023-05-16T00:34:07;97822.13;;;10.59;78.04
78717;BME280;68045;50.042;14.432;2023-05-16T00:38:08;97831.00;;;10.53;78.80
78717;BME280;68045;50.042;14.432;2023-05-16T00:42:08;97828.44;;;10.41;79.16
78717;BME280;68045;50.042;14.432;2023-05-16T00:46:09;97834.44;;;10.37;79.62
78717;BME280;68045;50.042;14.432;2023-05-16T00:50:10;97827.16;;;10.27;79.60
78717;BME280;68045;50.042;14.432;2023-05-16T00:54:12;97831.63;;;10.27;79.41
78717;BME280;68045;50.042;14.432;2023-05-16T00:58:15;97831.97;;;10.30;80.04
78717;BME280;68045;50.042;14.432;2023-05-16T01:02:16;97821.56;;;10.24;79.99
78717;BME280;68045;50.042;14.432;2023-05-16T01:06:18;97819.59;;;10.19;79.76
78717;BME280;68045;50.042;14.432;2023-05-16T01:10:19;97814.22;;;10.14;80.16
78717;BME280;68045;50.042;14.432;2023-05-16T01:23:55;97821.31;;;10.25;79.47
78717;BME280;68045;50.042;14.432;2023-05-16T01:28:01;97821.78;;;10.22;79.54
78717;BME280;68045;50.042;14.432;2023-05-16T01:32:03;97815.88;;;10.32;79.04
78717;BME280;68045;50.042;14.432;2023-05-16T01:40:32;97819.16;;;10.39;79.33
78717;BME280;68045;50.042;14.432;2023-05-16T01:53:21;97827.66;;;10.58;76.30
78717;BME280;68045;50.042;14.432;2023-05-16T01:57:26;97834.13;;;10.50;76.40
78717;BME280;68045;50.042;14.432;2023-05-16T02:01:29;97837.47;;;10.45;76.95
78717;BME280;68045;50.042;14.432;2023-05-16T02:05:31;97835.16;;;10.32;77.38
78717;BME280;68045;50.042;14.432;2023-05-16T02:09:32;97847.25;;;10.16;78.45
78717;BME280;68045;50.042;14.432;2023-05-16T02:13:33;97847.19;;;10.00;79.66
78717;BME280;68045;50.042;14.432;2023-05-16T02:17:37;97853.19;;;9.95;80.09
78717;BME280;68045;50.042;14.432;2023-05-16T02:21:38;97845.09;;;9.85;80.74
78717;BME280;68045;50.042;14.432;2023-05-16T02:25:39;97850.69;;;9.88;80.17
78717;BME280;68045;50.042;14.432;2023-05-16T02:29:40;97857.72;;;9.83;80.48
78717;BME280;68045;50.042;14.432;2023-05-16T02:33:41;97856.66;;;9.84;80.50
78717;BME280;68045;50.042;14.432;2023-05-16T02:37:43;97850.50;;;9.78;80.67
78717;BME280;68045;50.042;14.432;2023-05-16T02:41:43;97842.94;;;9.82;80.24
78717;BME280;68045;50.042;14.432;2023-05-16T02:45:44;97834.41;;;9.91;80.25
78717;BME280;68045;50.042;14.432;2023-05-16T02:49:45;97843.06;;;10.04;79.16
78717;BME280;68045;50.042;14.432;2023-05-16T02:53:46;97853.94;;;10.07;78.40
78717;BME280;68045;50.042;14.432;2023-05-16T02:57:47;97852.34;;;10.06;78.32
78717;BME280;68045;50.042;14.432;2023-05-16T03:01:48;97854.03;;;10.12;77.90
78717;BME280;68045;50.042;14.432;2023-05-16T03:05:49;97859.00;;;10.09;78.21
78717;BME280;68045;50.042;14.432;2023-05-16T03:09:50;97871.59;;;10.07;78.25
78717;BME280;68045;50.042;14.432;2023-05-16T03:13:52;97869.09;;;10.00;78.35
78717;BME280;68045;50.042;14.432;2023-05-16T03:17:53;97868.78;;;9.97;79.06
78717;BME280;68045;50.042;14.432;2023-05-16T03:21:54;97878.31;;;9.86;79.51
78717;BME280;68045;50.042;14.432;2023-05-16T03:25:55;97885.34;;;9.80;80.26
78717;BME280;68045;50.042;14.432;2023-05-16T03:29:56;97880.28;;;9.79;80.03
78717;BME280;68045;50.042;14.432;2023-05-16T03:33:56;97884.75;;;9.78;80.30
78717;BME280;68045;50.042;14.432;2023-05-16T03:37:57;97898.06;;;9.72;80.83
78717;BME280;68045;50.042;14.432;2023-05-16T03:41:58;97899.59;;;9.68;80.79
78717;BME280;68045;50.042;14.432;2023-05-16T03:46:03;97904.63;;;9.69;81.04
78717;BME280;68045;50.042;14.432;2023-05-16T03:50:05;97908.03;;;9.70;81.10
78717;BME280;68045;50.042;14.432;2023-05-16T03:54:07;97910.56;;;9.64;81.24
78717;BME280;68045;50.042;14.432;2023-05-16T03:58:09;97913.56;;;9.68;80.78
78717;BME280;68045;50.042;14.432;2023-05-16T04:02:11;97916.91;;;9.52;81.74
78717;BME280;68045;50.042;14.432;2023-05-16T04:06:12;97925.94;;;9.56;81.62
78717;BME280;68045;50.042;14.432;2023-05-16T04:10:13;97928.69;;;9.61;81.34
78717;BME280;68045;50.042;14.432;2023-05-16T04:14:14;97933.47;;;9.64;81.38
78717;BME280;68045;50.042;14.432;2023-05-16T04:18:15;97924.22;;;9.73;80.84
78717;BME280;68045;50.042;14.432;2023-05-16T04:22:16;97926.16;;;9.66;81.34
78717;BME280;68045;50.042;14.432;2023-05-16T04:26:17;97931.75;;;9.70;81.18
78717;BME280;68045;50.042;14.432;2023-05-16T04:30:18;97927.16;;;9.88;80.39
78717;BME280;68045;50.042;14.432;2023-05-16T04:34:19;97925.28;;;10.01;79.97
78717;BME280;68045;50.042;14.432;2023-05-16T04:38:20;97941.03;;;10.12;79.17
78717;BME280;68045;50.042;14.432;2023-05-16T04:42:22;97931.59;;;10.28;78.50
78717;BME280;68045;50.042;14.432;2023-05-16T04:46:23;97929.41;;;10.37;77.45
78717;BME280;68045;50.042;14.432;2023-05-16T04:50:25;97932.22;;;10.64;77.13
78717;BME280;68045;50.042;14.432;2023-05-16T04:54:26;97941.38;;;10.73;76.27
78717;BME280;68045;50.042;14.432;2023-05-16T04:58:26;97948.84;;;10.93;75.97
78717;BME280;68045;50.042;14.432;2023-05-16T05:02:27;97950.13;;;11.07;75.22
78717;BME280;68045;50.042;14.432;2023-05-16T05:06:28;97934.66;;;11.16;75.03
78717;BME280;68045;50.042;14.432;2023-05-16T05:10:30;97938.47;;;11.42;74.83
78717;BME280;68045;50.042;14.432;2023-05-16T05:14:30;97948.69;;;11.55;73.76
78717;BME280;68045;50.042;14.432;2023-05-16T05:18:31;97946.63;;;11.57;73.45
78717;BME280;68045;50.042;14.432;2023-05-16T05:22:32;97941.34;;;11.79;72.96
78717;BME280;68045;50.042;14.432;2023-05-16T05:26:33;97933.88;;;11.93;72.52
78717;BME280;68045;50.042;14.432;2023-05-16T05:30:34;97940.38;;;12.07;72.08
78717;BME280;68045;50.042;14.432;2023-05-16T05:34:35;97931.38;;;12.30;71.34
78717;BME280;68045;50.042;14.432;2023-05-16T05:38:36;97923.03;;;12.43;71.37
78717;BME280;68045;50.042;14.432;2023-05-16T05:42:37;97928.59;;;12.74;70.75
78717;BME280;68045;50.042;14.432;2023-05-16T05:46:38;97925.59;;;12.92;70.13
78717;BME280;68045;50.042;14.432;2023-05-16T05:50:39;97926.78;;;13.11;68.81
78717;BME280;68045;50.042;14.432;2023-05-16T05:54:41;97927.38;;;13.18;68.83
78717;BME280;68045;50.042;14.432;2023-05-16T05:58:42;97930.91;;;13.29;67.81
78717;BME280;68045;50.042;14.432;2023-05-16T06:02:43;97929.13;;;13.40;67.81
78717;BME280;68045;50.042;14.432;2023-05-16T06:06:44;97925.66;;;13.34;68.16
78717;BME280;68045;50.042;14.432;2023-05-16T06:10:46;97922.25;;;13.44;67.98
78717;BME280;68045;50.042;14.432;2023-05-16T06:14:47;97930.03;;;13.61;68.26
78717;BME280;68045;50.042;14.432;2023-05-16T06:18:48;97926.44;;;13.87;67.52
78717;BME280;68045;50.042;14.432;2023-05-16T06:22:49;97934.22;;;14.14;67.00
78717;BME280;68045;50.042;14.432;2023-05-16T06:26:50;97937.78;;;14.45;64.93
78717;BME280;68045;50.042;14.432;2023-05-16T06:30:52;97939.69;;;14.70;63.21
78717;BME280;68045;50.042;14.432;2023-05-16T06:34:53;97938.38;;;14.98;61.74
78717;BME280;68045;50.042;14.432;2023-05-16T06:38:54;97931.72;;;15.16;61.00
78717;BME280;68045;50.042;14.432;2023-05-16T06:42:55;97930.63;;;15.37;60.76
78717;BME280;68045;50.042;14.432;2023-05-16T06:46:58;97942.31;;;15.62;59.90
78717;BME280;68045;50.042;14.432;2023-05-16T06:50:58;97937.44;;;15.84;59.48
78717;BME280;68045;50.042;14.432;2023-05-16T06:54:59;97933.06;;;16.14;58.35
78717;BME280;68045;50.042;14.432;2023-05-16T06:59:00;97933.13;;;16.48;57.04
78717;BME280;68045;50.042;14.432;2023-05-16T07:03:01;97945.56;;;16.63;56.46
78717;BME280;68045;50.042;14.432;2023-05-16T07:07:03;97946.50;;;16.87;54.34
78717;BME280;68045;50.042;14.432;2023-05-16T07:11:04;97947.47;;;16.96;53.60
78717;BME280;68045;50.042;14.432;2023-05-16T07:15:05;97941.53;;;17.05;53.70
78717;BME280;68045;50.042;14.432;2023-05-16T07:19:06;97939.28;;;17.22;53.40
78717;BME280;68045;50.042;14.432;2023-05-16T07:23:08;97938.34;;;17.37;52.89
78717;BME280;68045;50.042;14.432;2023-05-16T07:27:08;97951.31;;;17.48;52.87
78717;BME280;68045;50.042;14.432;2023-05-16T07:31:09;97942.69;;;17.80;52.95
78717;BME280;68045;50.042;14.432;2023-05-16T07:35:10;97945.44;;;18.18;51.87
78717;BME280;68045;50.042;14.432;2023-05-16T07:39:12;97947.56;;;18.40;51.17
78717;BME280;68045;50.042;14.432;2023-05-16T07:43:14;97960.94;;;18.59;49.40
78717;BME280;68045;50.042;14.432;2023-05-16T07:47:15;97961.00;;;18.54;49.77
78717;BME280;68045;50.042;14.432;2023-05-16T07:51:16;97963.81;;;18.81;49.60
78717;BME280;68045;50.042;14.432;2023-05-16T07:55:17;97974.63;;;19.09;48.61
78717;BME280;68045;50.042;14.432;2023-05-16T07:59:18;97967.44;;;19.23;48.20
78717;BME280;68045;50.042;14.432;2023-05-16T08:03:19;97974.16;;;19.39;47.80
78717;BME280;68045;50.042;14.432;2023-05-16T08:07:20;97981.88;;;19.41;47.27
78717;BME280;68045;50.042;14.432;2023-05-16T08:11:21;97993.56;;;19.45;47.27
78717;BME280;68045;50.042;14.432;2023-05-16T08:15:22;98000.69;;;19.68;46.44
78717;BME280;68045;50.042;14.432;2023-05-16T08:19:23;97999.41;;;19.93;47.04
78717;BME280;68045;50.042;14.432;2023-05-16T08:23:23;97992.28;;;20.16;45.14
78717;BME280;68045;50.042;14.432;2023-05-16T08:27:25;97998.44;;;20.30;45.36
78717;BME280;68045;50.042;14.432;2023-05-16T08:31:26;97998.22;;;20.54;45.16
78717;BME280;68045;50.042;14.432;2023-05-16T08:35:27;98001.38;;;20.93;44.25
78717;BME280;68045;50.042;14.432;2023-05-16T08:39:27;98013.47;;;21.26;43.19
78717;BME280;68045;50.042;14.432;2023-05-16T08:43:30;98017.59;;;21.46;43.09
78717;BME280;68045;50.042;14.432;2023-05-16T08:47:33;98001.63;;;21.72;41.91
78717;BME280;68045;50.042;14.432;2023-05-16T08:51:36;98005.81;;;21.96;41.74
78717;BME280;68045;50.042;14.432;2023-05-16T08:55:38;98006.84;;;22.08;41.12
78717;BME280;68045;50.042;14.432;2023-05-16T08:59:41;98006.56;;;21.79;41.56
78717;BME280;68045;50.042;14.432;2023-05-16T09:03:42;98011.28;;;22.13;40.81
78717;BME280;68045;50.042;14.432;2023-05-16T09:07:44;98019.47;;;22.73;40.25
78717;BME280;68045;50.042;14.432;2023-05-16T09:11:45;98019.50;;;23.17;39.35
78717;BME280;68045;50.042;14.432;2023-05-16T09:16:07;98020.84;;;23.75;37.60
78717;BME280;68045;50.042;14.432;2023-05-16T09:20:18;98026.75;;;23.51;37.90
78717;BME280;68045;50.042;14.432;2023-05-16T09:24:24;98019.31;;;23.56;38.28
78717;BME280;68045;50.042;14.432;2023-05-16T09:28:25;98020.75;;;23.45;38.51
78717;BME280;68045;50.042;14.432;2023-05-16T09:32:26;98021.56;;;23.11;39.36
78717;BME280;68045;50.042;14.432;2023-05-16T09:36:27;98023.28;;;22.81;40.12
78717;BME280;68045;50.042;14.432;2023-05-16T09:40:28;98012.06;;;23.22;39.26
78717;BME280;68045;50.042;14.432;2023-05-16T09:44:30;98015.84;;;23.30;39.04
78717;BME280;68045;50.042;14.432;2023-05-16T09:48:32;98012.97;;;23.44;38.85
78717;BME280;68045;50.042;14.432;2023-05-16T09:52:32;98018.91;;;23.93;37.81
78717;BME280;68045;50.042;14.432;2023-05-16T09:56:47;98025.44;;;23.74;36.90
78717;BME280;68045;50.042;14.432;2023-05-16T10:00:48;98027.47;;;23.86;36.93
78717;BME280;68045;50.042;14.432;2023-05-16T10:04:49;98014.63;;;23.92;36.24
78717;BME280;68045;50.042;14.432;2023-05-16T10:08:49;98013.59;;;23.67;36.87
78717;BME280;68045;50.042;14.432;2023-05-16T10:12:51;98016.47;;;23.62;37.08
78717;BME280;68045;50.042;14.432;2023-05-16T10:16:53;97993.56;;;23.85;36.32
78717;BME280;68045;50.042;14.432;2023-05-16T10:20:56;97992.16;;;23.79;36.51
78717;BME280;68045;50.042;14.432;2023-05-16T10:29:17;97994.34;;;21.73;40.11
78717;BME280;68045;50.042;14.432;2023-05-16T10:33:18;97989.53;;;21.30;42.61
78717;BME280;68045;50.042;14.432;2023-05-16T10:37:22;97983.28;;;21.74;42.57
78717;BME280;68045;50.042;14.432;2023-05-16T10:41:24;97988.81;;;22.09;41.93
78717;BME280;68045;50.042;14.432;2023-05-16T10:45:26;97989.19;;;21.85;41.52
78717;BME280;68045;50.042;14.432;2023-05-16T10:49:29;97987.88;;;21.43;43.10
78717;BME280;68045;50.042;14.432;2023-05-16T10:53:32;97967.13;;;21.34;43.78
78717;BME280;68045;50.042;14.432;2023-05-16T10:57:34;97959.88;;;20.54;45.98
78717;BME280;68045;50.042;14.432;2023-05-16T11:01:36;97962.97;;;20.34;47.02
78717;BME280;68045;50.042;14.432;2023-05-16T11:05:37;97954.31;;;20.37;46.82
78717;BME280;68045;50.042;14.432;2023-05-16T11:09:43;97957.06;;;20.09;46.87
78717;BME280;68045;50.042;14.432;2023-05-16T11:13:54;97959.84;;;20.04;47.32
78717;BME280;68045;50.042;14.432;2023-05-16T11:18:08;97953.28;;;20.10;47.09
78717;BME280;68045;50.042;14.432;2023-05-16T11:22:23;97967.78;;;19.68;48.07
78717;BME280;68045;50.042;14.432;2023-05-16T11:26:25;97983.38;;;18.82;49.65
78717;BME280;68045;50.042;14.432;2023-05-16T11:30:26;97980.00;;;18.52;50.37
78717;BME280;68045;50.042;14.432;2023-05-16T11:34:27;97986.03;;;18.82;49.90
78717;BME280;68045;50.042;14.432;2023-05-16T11:38:31;97991.88;;;18.84;48.84
78717;BME280;68045;50.042;14.432;2023-05-16T11:42:39;98009.44;;;18.90;48.84
78717;BME280;68045;50.042;14.432;2023-05-16T11:46:41;98025.59;;;18.61;49.58
78717;BME280;68045;50.042;14.432;2023-05-16T11:50:42;98035.81;;;18.35;50.38
78717;BME280;68045;50.042;14.432;2023-05-16T11:54:42;98037.34;;;18.41;50.26
78717;BME280;68045;50.042;14.432;2023-05-16T11:58:43;98045.91;;;18.62;49.69
78717;BME280;68045;50.042;14.432;2023-05-16T12:02:46;98058.66;;;18.22;50.58
78717;BME280;68045;50.042;14.432;2023-05-16T12:06:57;98082.63;;;18.03;51.36
78717;BME280;68045;50.042;14.432;2023-05-16T12:10:59;98076.56;;;18.22;50.43
78717;BME280;68045;50.042;14.432;2023-05-16T12:15:01;98073.91;;;17.98;50.59
78717;BME280;68045;50.042;14.432;2023-05-16T12:19:06;98080.19;;;17.83;51.18
78717;BME280;68045;50.042;14.432;2023-05-16T12:23:11;98091.75;;;17.68;51.62
78717;BME280;68045;50.042;14.432;2023-05-16T12:27:20;98081.34;;;17.67;51.80
78717;BME280;68045;50.042;14.432;2023-05-16T12:31:22;98082.69;;;17.35;52.49
78717;BME280;68045;50.042;14.432;2023-05-16T12:35:32;98078.03;;;17.12;53.08
78717;BME280;68045;50.042;14.432;2023-05-16T12:39:37;98074.34;;;17.02;54.02
78717;BME280;68045;50.042;14.432;2023-05-16T12:43:38;98087.25;;;16.85;53.59
78717;BME280;68045;50.042;14.432;2023-05-16T12:47:39;98077.50;;;16.55;54.48
78717;BME280;68045;50.042;14.432;2023-05-16T12:51:47;98079.72;;;16.33;54.48
78717;BME280;68045;50.042;14.432;2023-05-16T12:55:49;98067.25;;;16.18;54.86
78717;BME280;68045;50.042;14.432;2023-05-16T12:59:49;98064.09;;;16.01;56.20
78717;BME280;68045;50.042;14.432;2023-05-16T13:03:50;98067.03;;;15.94;56.30
78717;BME280;68045;50.042;14.432;2023-05-16T13:07:51;98065.69;;;15.97;55.32
78717;BME280;68045;50.042;14.432;2023-05-16T13:11:52;98050.53;;;15.97;55.55
78717;BME280;68045;50.042;14.432;2023-05-16T13:15:53;98055.31;;;16.00;55.37
78717;BME280;68045;50.042;14.432;2023-05-16T13:19:54;98059.47;;;16.32;54.36
78717;BME280;68045;50.042;14.432;2023-05-16T13:23:55;98059.19;;;16.38;53.92
78717;BME280;68045;50.042;14.432;2023-05-16T13:27:56;98073.25;;;16.49;53.53
78717;BME280;68045;50.042;14.432;2023-05-16T13:31:57;98072.13;;;16.65;52.97
78717;BME280;68045;50.042;14.432;2023-05-16T13:35:58;98085.56;;;16.40;52.82
78717;BME280;68045;50.042;14.432;2023-05-16T13:39:58;98088.88;;;15.91;54.07
78717;BME280;68045;50.042;14.432;2023-05-16T13:43:59;98085.19;;;15.67;54.67
78717;BME280;68045;50.042;14.432;2023-05-16T13:48:00;98098.72;;;16.01;54.54
78717;BME280;68045;50.042;14.432;2023-05-16T13:52:01;98103.16;;;16.36;53.18
78717;BME280;68045;50.042;14.432;2023-05-16T13:56:02;98117.00;;;16.43;52.71
78717;BME280;68045;50.042;14.432;2023-05-16T14:00:04;98110.88;;;16.27;52.55
78717;BME280;68045;50.042;14.432;2023-05-16T14:04:15;98095.53;;;15.68;53.64
78717;BME280;68045;50.042;14.432;2023-05-16T14:08:16;98079.53;;;15.17;54.91
78717;BME280;68045;50.042;14.432;2023-05-16T14:12:17;98077.13;;;15.05;55.68
78717;BME280;68045;50.042;14.432;2023-05-16T14:16:17;98094.31;;;14.67;56.27
78717;BME280;68045;50.042;14.432;2023-05-16T14:20:18;98101.16;;;14.58;57.12
78717;BME280;68045;50.042;14.432;2023-05-16T14:24:20;98098.00;;;14.61;57.29
78717;BME280;68045;50.042;14.432;2023-05-16T14:28:20;98094.59;;;14.76;56.69
78717;BME280;68045;50.042;14.432;2023-05-16T14:32:22;98087.47;;;15.07;56.19
78717;BME280;68045;50.042;14.432;2023-05-16T14:36:22;98085.09;;;15.05;56.22
78717;BME280;68045;50.042;14.432;2023-05-16T14:40:24;98104.56;;;15.31;55.50
78717;BME280;68045;50.042;14.432;2023-05-16T14:44:24;98109.34;;;15.55;54.98
78717;BME280;68045;50.042;14.432;2023-05-16T14:48:25;98125.84;;;15.57;54.18
78717;BME280;68045;50.042;14.432;2023-05-16T14:52:26;98122.31;;;15.05;55.15
78717;BME280;68045;50.042;14.432;2023-05-16T14:56:27;98120.09;;;14.77;56.29
78717;BME280;68045;50.042;14.432;2023-05-16T15:00:28;98125.09;;;14.63;56.68
78717;BME280;68045;50.042;14.432;2023-05-16T15:04:29;98128.84;;;14.72;55.92
78717;BME280;68045;50.042;14.432;2023-05-16T15:08:30;98126.22;;;14.82;55.36
78717;BME280;68045;50.042;14.432;2023-05-16T15:12:31;98129.22;;;15.06;54.76
78717;BME280;68045;50.042;14.432;2023-05-16T15:16:32;98120.75;;;15.25;54.38
78717;BME280;68045;50.042;14.432;2023-05-16T15:20:33;98130.06;;;15.22;53.72
78717;BME280;68045;50.042;14.432;2023-05-16T15:24:35;98139.91;;;15.32;53.86
78717;BME280;68045;50.042;14.432;2023-05-16T15:28:36;98148.88;;;15.05;54.38
78717;BME280;68045;50.042;14.432;2023-05-16T15:32:37;98140.59;;;14.81;54.84
78717;BME280;68045;50.042;14.432;2023-05-16T15:36:38;98153.81;;;14.71;55.36
78717;BME280;68045;50.042;14.432;2023-05-16T15:40:38;98150.66;;;14.32;55.93
78717;BME280;68045;50.042;14.432;2023-05-16T15:44:40;98161.06;;;13.96;56.95
78717;BME280;68045;50.042;14.432;2023-05-16T15:48:40;98148.16;;;14.10;57.16
78717;BME280;68045;50.042;14.432;2023-05-16T15:52:44;98143.69;;;14.21;57.19
78717;BME280;68045;50.042;14.432;2023-05-16T15:56:45;98158.38;;;14.34;56.42
78717;BME280;68045;50.042;14.432;2023-05-16T16:00:46;98170.81;;;14.28;56.59
78717;BME280;68045;50.042;14.432;2023-05-16T16:04:48;98170.06;;;13.95;57.47
78717;BME280;68045;50.042;14.432;2023-05-16T16:08:49;98173.25;;;13.97;57.33
78717;BME280;68045;50.042;14.432;2023-05-16T16:13:00;98170.19;;;13.79;57.97
78717;BME280;68045;50.042;14.432;2023-05-16T16:17:01;98179.28;;;13.56;58.28
78717;BME280;68045;50.042;14.432;2023-05-16T16:21:02;98181.31;;;13.49;59.21
78717;BME280;68045;50.042;14.432;2023-05-16T16:25:04;98179.13;;;13.40;59.54
78717;BME280;68045;50.042;14.432;2023-05-16T16:29:05;98178.88;;;13.42;59.96
78717;BME280;68045;50.042;14.432;2023-05-16T16:33:06;98179.94;;;13.19;59.87
78717;BME280;68045;50.042;14.432;2023-05-16T16:37:07;98182.78;;;13.12;59.74
78717;BME280;68045;50.042;14.432;2023-05-16T16:41:09;98172.66;;;13.09;59.86
78717;BME280;68045;50.042;14.432;2023-05-16T16:45:10;98177.22;;;13.14;60.35
78717;BME280;68045;50.042;14.432;2023-05-16T16:49:11;98163.63;;;13.27;59.68
78717;BME280;68045;50.042;14.432;2023-05-16T16:53:12;98173.41;;;13.27;59.89
78717;BME280;68045;50.042;14.432;2023-05-16T16:57:13;98177.13;;;13.26;59.32
78717;BME280;68045;50.042;14.432;2023-05-16T17:01:14;98170.50;;;13.28;59.57
78717;BME280;68045;50.042;14.432;2023-05-16T17:05:15;98185.34;;;13.07;60.05
78717;BME280;68045;50.042;14.432;2023-05-16T17:09:16;98189.53;;;13.03;60.19
78717;BME280;68045;50.042;14.432;2023-05-16T17:13:17;98195.28;;;12.95;60.06
78717;BME280;68045;50.042;14.432;2023-05-16T17:17:18;98204.63;;;12.81;60.02
78717;BME280;68045;50.042;14.432;2023-05-16T17:21:19;98208.22;;;12.70;60.83
78717;BME280;68045;50.042;14.432;2023-05-16T17:25:21;98211.16;;;12.73;60.85
78717;BME280;68045;50.042;14.432;2023-05-16T17:29:22;98215.59;;;12.68;61.71
78717;BME280;68045;50.042;14.432;2023-05-16T17:33:23;98215.84;;;12.66;61.25
78717;BME280;68045;50.042;14.432;2023-05-16T17:37:25;98216.59;;;12.61;61.52
78717;BME280;68045;50.042;14.432;2023-05-16T17:41:26;98211.75;;;12.58;62.23
78717;BME280;68045;50.042;14.432;2023-05-16T17:45:27;98221.31;;;12.59;62.65
78717;BME280;68045;50.042;14.432;2023-05-16T17:49:28;98224.56;;;12.67;62.37
78717;BME280;68045;50.042;14.432;2023-05-16T17:53:28;98231.81;;;12.54;62.49
78717;BME280;68045;50.042;14.432;2023-05-16T17:57:29;98223.81;;;12.49;63.01
78717;BME280;68045;50.042;14.432;2023-05-16T18:01:30;98238.50;;;12.40;63.42
78717;BME280;68045;50.042;14.432;2023-05-16T18:05:32;98240.13;;;12.41;62.79
78717;BME280;68045;50.042;14.432;2023-05-16T18:09:33;98251.56;;;12.47;63.30
78717;BME280;68045;50.042;14.432;2023-05-16T18:13:34;98257.44;;;12.49;63.06
78717;BME280;68045;50.042;14.432;2023-05-16T18:17:35;98252.34;;;12.47;63.10
78717;BME280;68045;50.042;14.432;2023-05-16T18:21:36;98244.25;;;12.54;63.26
78717;BME280;68045;50.042;14.432;2023-05-16T18:25:37;98249.50;;;12.49;62.78
78717;BME280;68045;50.042;14.432;2023-05-16T18:29:38;98255.59;;;12.49;62.28
78717;BME280;68045;50.042;14.432;2023-05-16T18:33:39;98259.44;;;12.42;61.63
78717;BME280;68045;50.042;14.432;2023-05-16T18:37:40;98264.41;;;12.38;61.53
78717;BME280;68045;50.042;14.432;2023-05-16T18:41:41;98266.16;;;12.32;61.11
78717;BME280;68045;50.042;14.432;2023-05-16T18:45:46;98275.31;;;12.42;61.53
78717;BME280;68045;50.042;14.432;2023-05-16T18:49:47;98274.91;;;12.33;61.95
78717;BME280;68045;50.042;14.432;2023-05-16T18:53:48;98275.66;;;12.28;61.87
78717;BME280;68045;50.042;14.432;2023-05-16T18:57:48;98266.81;;;12.23;61.92
78717;BME280;68045;50.042;14.432;2023-05-16T19:01:50;98269.63;;;12.16;61.65
78717;BME280;68045;50.042;14.432;2023-05-16T19:05:51;98268.81;;;12.16;62.44
78717;BME280;68045;50.042;14.432;2023-05-16T19:09:52;98282.28;;;12.14;61.64
78717;BME280;68045;50.042;14.432;2023-05-16T19:13:53;98276.91;;;12.09;62.07
78717;BME280;68045;50.042;14.432;2023-05-16T19:17:54;98275.31;;;12.08;61.86
78717;BME280;68045;50.042;14.432;2023-05-16T19:21:55;98271.31;;;12.05;60.96
78717;BME280;68045;50.042;14.432;2023-05-16T19:25:56;98288.19;;;12.04;61.10
78717;BME280;68045;50.042;14.432;2023-05-16T19:29:57;98286.34;;;12.05;61.42
78717;BME280;68045;50.042;14.432;2023-05-16T19:33:58;98284.69;;;11.99;62.20
78717;BME280;68045;50.042;14.432;2023-05-16T19:37:59;98283.50;;;12.06;62.97
78717;BME280;68045;50.042;14.432;2023-05-16T19:42:02;98284.09;;;11.97;62.23
78717;BME280;68045;50.042;14.432;2023-05-16T19:46:02;98288.72;;;11.90;61.94
78717;BME280;68045;50.042;14.432;2023-05-16T19:50:05;98282.50;;;11.96;63.98
78717;BME280;68045;50.042;14.432;2023-05-16T19:54:06;98294.13;;;12.12;61.71
78717;BME280;68045;50.042;14.432;2023-05-16T19:58:07;98293.34;;;12.11;60.95
78717;BME280;68045;50.042;14.432;2023-05-16T20:02:08;98290.28;;;12.02;61.44
78717;BME280;68045;50.042;14.432;2023-05-16T20:06:09;98301.56;;;11.98;61.03
78717;BME280;68045;50.042;14.432;2023-05-16T20:10:11;98299.81;;;11.87;61.70
78717;BME280;68045;50.042;14.432;2023-05-16T20:14:11;98319.34;;;11.86;61.68
78717;BME280;68045;50.042;14.432;2023-05-16T20:18:13;98315.66;;;11.87;61.72
78717;BME280;68045;50.042;14.432;2023-05-16T20:22:14;98313.34;;;11.90;61.88
78717;BME280;68045;50.042;14.432;2023-05-16T20:26:15;98308.63;;;11.92;61.18
78717;BME280;68045;50.042;14.432;2023-05-16T20:30:16;98311.03;;;11.94;61.37
78717;BME280;68045;50.042;14.432;2023-05-16T20:34:16;98312.53;;;11.90;60.66
78717;BME280;68045;50.042;14.432;2023-05-16T20:38:17;98308.06;;;11.90;62.00
78717;BME280;68045;50.042;14.432;2023-05-16T20:42:18;98305.78;;;11.82;61.37
78717;BME280;68045;50.042;14.432;2023-05-16T20:46:19;98310.97;;;11.77;61.68
78717;BME280;68045;50.042;14.432;2023-05-16T20:50:21;98316.47;;;11.75;61.74
78717;BME280;68045;50.042;14.432;2023-05-16T20:54:22;98310.63;;;11.73;61.13
78717;BME280;68045;50.042;14.432;2023-05-16T20:58:22;98314.88;;;11.74;62.56
78717;BME280;68045;50.042;14.432;2023-05-16T21:02:23;98306.69;;;11.76;62.19
78717;BME280;68045;50.042;14.432;2023-05-16T21:06:25;98308.88;;;11.79;61.89
78717;BME280;68045;50.042;14.432;2023-05-16T21:10:26;98314.88;;;11.86;61.72
78717;BME280;68045;50.042;14.432;2023-05-16T21:14:27;98322.56;;;11.76;62.76
78717;BME280;68045;50.042;14.432;2023-05-16T21:18:27;98319.84;;;11.71;62.88
78717;BME280;68045;50.042;14.432;2023-05-16T21:22:28;98326.06;;;11.65;63.59
78717;BME280;68045;50.042;14.432;2023-05-16T21:26:29;98323.88;;;11.62;64.18
78717;BME280;68045;50.042;14.432;2023-05-16T21:30:30;98317.56;;;11.63;63.85